Time;durP1;ratioP1;P1;durP2;ratioP2;P2;SDS_P1;SDS_P2;PMS_P1;PMS_P2;Temp;Humidity;BMP_temperature;BMP_pressure;BME280_temperature;BME280_humidity;BME280_pressure;Samples;Min_cycle;Max_cycle;Signal;HPM_P1;HPM_P2
2023/09/10 00:01:16;;;;;;;;;;;21.90;58.00;;;18.15;100.00;95702.81;5026823;28;19908;-43
2023/09/10 00:03:42;;;;;;;;;;;21.90;58.20;;;18.18;100.00;95698.72;5032011;28;19913;-44
2023/09/10 00:06:09;;;;;;;;;;;21.90;58.30;;;18.20;100.00;95708.06;5025215;28;19913;-45
2023/09/10 00:08:35;;;;;;;;;;;22.00;58.40;;;18.21;100.00;95704.28;5032261;28;19920;-46
2023/09/10 00:11:04;;;;;;;;;;;22.00;58.50;;;18.20;100.00;95707.25;5012886;28;19909;-46
2023/09/10 00:13:30;;;;;;;;;;;22.00;58.40;;;18.18;100.00;95712.97;5023257;28;19989;-46
2023/09/10 00:15:56;;;;;;;;;;;21.90;58.40;;;18.17;100.00;95705.19;5028975;28;19930;-48
2023/09/10 00:18:23;;;;;;;;;;;21.90;58.40;;;18.13;100.00;95705.00;5020300;28;19909;-47
2023/09/10 00:20:52;;;;;;;;;;;21.90;58.40;;;18.09;100.00;95711.34;5029786;28;20279;-47
2023/09/10 00:23:18;;;;;;;;;;;21.90;58.50;;;18.03;100.00;95708.78;5010188;28;19967;-46
2023/09/10 00:25:44;;;;;;;;;;;21.90;58.50;;;17.96;100.00;95703.03;5012296;28;19913;-46
2023/09/10 00:28:10;;;;;;;;;;;21.90;58.50;;;17.90;100.00;95714.25;5012398;28;19924;-47
2023/09/10 00:30:36;;;;;;;;;;;21.80;58.50;;;17.87;100.00;95710.25;5015551;28;19916;-46
2023/09/10 00:33:02;;;;;;;;;;;21.80;58.50;;;17.84;100.00;95713.56;5032118;28;20283;-46
2023/09/10 00:35:28;;;;;;;;;;;21.80;58.50;;;17.77;100.00;95713.22;5026126;28;19916;-47
2023/09/10 00:37:54;;;;;;;;;;;21.70;58.50;;;17.70;100.00;95702.03;5023249;28;19917;-46
2023/09/10 00:40:20;;;;;;;;;;;21.70;58.50;;;17.63;100.00;95710.53;5031839;28;19917;-47
2023/09/10 00:42:45;;;;;;;;;;;21.60;58.60;;;17.57;100.00;95714.44;5011884;28;19916;-45
2023/09/10 00:45:12;;;;;;;;;;;21.60;58.60;;;17.52;100.00;95714.59;5011980;28;19913;-46
2023/09/10 00:47:44;;;;;;;;;;;21.50;58.70;;;17.47;100.00;95712.00;5006484;28;19913;-44
2023/09/10 00:50:11;;;;;;;;;;;21.40;58.80;;;17.40;100.00;95714.34;4998035;28;20067;-46
2023/09/10 00:52:49;;;;;;;;;;;21.40;58.90;;;17.37;100.00;95723.03;5004536;28;20449;-49
2023/09/10 00:55:17;;;;;;;;;;;21.40;59.00;;;17.39;100.00;95721.59;5001112;28;19909;-48
2023/09/10 00:57:43;;;;;;;;;;;21.30;59.00;;;17.35;100.00;95717.94;5014558;28;19912;-44
2023/09/10 01:00:12;;;;;;;;;;;21.30;59.10;;;17.35;100.00;95717.94;5020703;28;19916;-45
2023/09/10 01:02:44;;;;;;;;;;;21.20;59.10;;;17.33;100.00;95712.06;5024997;28;19908;-44
2023/09/10 01:05:11;;;;;;;;;;;21.20;59.20;;;17.29;100.00;95711.84;5028151;28;19944;-45
2023/09/10 01:07:38;;;;;;;;;;;21.20;59.30;;;17.27;100.00;95708.69;5026819;28;19959;-47
2023/09/10 01:10:07;;;;;;;;;;;21.20;59.40;;;17.25;100.00;95708.19;5031715;28;19915;-44
2023/09/10 01:13:02;;;;;;;;;;;21.10;59.40;;;17.25;100.00;95708.19;5007278;28;19943;-44
2023/09/10 01:15:59;;;;;;;;;;;21.10;59.50;;;17.24;100.00;95703.13;5023942;28;19951;-45
2023/09/10 01:18:40;;;;;;;;;;;21.10;59.60;;;17.26;100.00;95709.75;4995440;28;19909;-47
2023/09/10 01:21:47;;;;;;;;;;;21.10;59.70;;;17.27;100.00;95707.91;5029956;28;19912;-45
2023/09/10 01:24:27;;;;;;;;;;;21.10;59.80;;;17.23;100.00;95705.00;5005312;28;20042;-45
2023/09/10 01:26:59;;;;;;;;;;;21.00;59.80;;;17.19;100.00;95704.00;4999721;28;19913;-47
2023/09/10 01:29:25;;;;;;;;;;;21.00;59.90;;;17.15;100.00;95705.72;5028244;28;19913;-45
2023/09/10 01:32:03;;;;;;;;;;;21.00;59.90;;;17.10;100.00;95717.38;5012159;28;19909;-46
2023/09/10 01:34:55;;;;;;;;;;;21.00;59.90;;;17.10;100.00;95706.63;5020594;28;19916;-45
2023/09/10 01:37:38;;;;;;;;;;;21.00;60.00;;;17.09;100.00;95710.41;4991142;28;19908;-46
2023/09/10 01:40:12;;;;;;;;;;;21.00;60.00;;;17.05;100.00;95709.44;5008940;28;19917;-46
2023/09/10 01:42:40;;;;;;;;;;;21.00;60.00;;;17.01;100.00;95713.03;4995488;28;19909;-49
2023/09/10 01:45:10;;;;;;;;;;;20.90;60.00;;;16.98;100.00;95716.31;5013610;28;19912;-49
2023/09/10 01:47:36;;;;;;;;;;;20.90;60.10;;;16.95;100.00;95715.03;5008990;28;20363;-46
2023/09/10 01:50:02;;;;;;;;;;;20.90;60.10;;;16.93;100.00;95714.53;5022483;28;19919;-47
2023/09/10 01:52:28;;;;;;;;;;;20.80;60.20;;;16.94;100.00;95710.75;5035039;28;20371;-46
2023/09/10 01:54:53;;;;;;;;;;;20.80;60.30;;;16.95;100.00;95712.31;5021219;28;19997;-46
2023/09/10 01:57:19;;;;;;;;;;;20.80;60.50;;;16.95;100.00;95706.16;5035035;28;19912;-48
2023/09/10 01:59:45;;;;;;;;;;;20.80;60.60;;;16.93;100.00;95717.22;5028308;28;20277;-46
2023/09/10 02:02:11;;;;;;;;;;;20.80;60.60;;;16.91;100.00;95710.56;5015287;28;19912;-46
2023/09/10 02:04:36;;;;;;;;;;;20.80;60.60;;;16.87;100.00;95711.16;5001530;28;19999;-45
2023/09/10 02:07:02;;;;;;;;;;;20.80;60.70;;;16.86;100.00;95717.66;5013931;28;20299;-47
2023/09/10 02:09:28;;;;;;;;;;;20.80;60.70;;;16.85;100.00;95716.03;5052418;23;19924;-42
2023/09/10 02:11:53;;;;;;;;;;;20.70;61.00;;;16.84;100.00;95713.66;5036827;28;19908;-42
2023/09/10 02:14:19;;;;;;;;;;;20.70;60.80;;;16.83;100.00;95709.38;5038856;28;19912;-43
2023/09/10 02:16:45;;;;;;;;;;;20.70;60.90;;;16.80;100.00;95704.59;5052586;28;19912;-43
2023/09/10 02:19:11;;;;;;;;;;;20.70;60.90;;;16.77;100.00;95714.06;5026962;28;19909;-44
2023/09/10 02:21:37;;;;;;;;;;;20.70;61.00;;;16.76;100.00;95711.66;5034142;28;20319;-44
2023/09/10 02:24:03;;;;;;;;;;;20.70;61.00;;;16.74;100.00;95713.84;5025431;28;19955;-42
2023/09/10 02:26:29;;;;;;;;;;;20.70;61.20;;;16.74;100.00;95716.53;5028370;28;20007;-47
2023/09/10 02:28:55;;;;;;;;;;;20.60;61.10;;;16.70;100.00;95710.94;5028030;28;19987;-47
2023/09/10 02:31:22;;;;;;;;;;;20.60;61.20;;;16.68;100.00;95709.66;5022063;28;19944;-45
2023/09/10 02:33:47;;;;;;;;;;;20.60;61.20;;;16.62;100.00;95715.13;5033390;28;19909;-43
2023/09/10 02:36:13;;;;;;;;;;;20.60;61.20;;;16.64;100.00;95715.63;5031322;28;20012;-44
2023/09/10 02:38:39;;;;;;;;;;;20.60;61.30;;;16.64;100.00;95718.31;5033547;28;19915;-48
2023/09/10 02:41:05;;;;;;;;;;;20.60;61.40;;;16.63;100.00;95718.63;5031820;28;19908;-43
2023/09/10 02:43:30;;;;;;;;;;;20.60;61.50;;;16.64;100.00;95714.84;5022710;28;19913;-45
2023/09/10 02:45:56;;;;;;;;;;;20.60;61.50;;;16.64;100.00;95714.84;5021295;28;19940;-44
2023/09/10 02:48:22;;;;;;;;;;;20.50;61.70;;;16.60;100.00;95720.00;5022346;28;20241;-43
2023/09/10 02:50:48;;;;;;;;;;;20.50;61.50;;;16.56;100.00;95720.91;5032863;28;19962;-47
2023/09/10 02:53:13;;;;;;;;;;;20.50;61.60;;;16.51;100.00;95715.63;5030983;28;20402;-46
2023/09/10 02:55:39;;;;;;;;;;;20.50;61.50;;;16.48;100.00;95726.97;5033220;28;19908;-43
2023/09/10 02:58:06;;;;;;;;;;;20.50;61.60;;;16.46;100.00;95729.19;5032381;28;19913;-44
2023/09/10 03:00:32;;;;;;;;;;;20.40;61.50;;;16.45;100.00;95727.56;5027733;28;19909;-43
2023/09/10 03:02:58;;;;;;;;;;;20.40;61.60;;;16.42;100.00;95720.91;5032717;28;19916;-47
2023/09/10 03:05:24;;;;;;;;;;;20.40;62.40;;;16.37;100.00;95724.47;5028106;28;19963;-46
2023/09/10 03:07:55;;;;;;;;;;;20.40;61.60;;;16.36;100.00;95730.97;5027966;28;19913;-44
2023/09/10 03:10:21;;;;;;;;;;;20.40;61.80;;;16.34;100.00;95724.28;5025517;28;19909;-46
2023/09/10 03:12:46;;;;;;;;;;;20.30;61.80;;;16.30;100.00;95724.09;5025821;28;20374;-47
2023/09/10 03:15:13;;;;;;;;;;;20.30;61.80;;;16.29;100.00;95729.75;5031632;28;19963;-47
2023/09/10 03:17:39;;;;;;;;;;;20.30;61.90;;;16.28;100.00;95730.84;5026603;28;19920;-44
2023/09/10 03:20:09;;;;;;;;;;;20.20;61.90;;;16.24;100.00;95725.28;5023424;28;19912;-46
2023/09/10 03:22:36;;;;;;;;;;;20.20;61.90;;;16.22;100.00;95729.34;5032909;28;19916;-45
2023/09/10 03:25:02;;;;;;;;;;;20.20;62.00;;;16.17;100.00;95725.66;5022469;28;19919;-45
2023/09/10 03:27:27;;;;;;;;;;;20.10;62.10;;;16.19;100.00;95728.03;5031362;28;19908;-45
2023/09/10 03:29:53;;;;;;;;;;;20.20;62.20;;;16.17;100.00;95722.97;5023774;28;19948;-43
2023/09/10 03:32:19;;;;;;;;;;;20.10;62.20;;;16.17;100.00;95727.56;5027022;28;20007;-43
2023/09/10 03:34:45;;;;;;;;;;;20.10;62.30;;;16.15;100.00;95727.06;5031173;28;20015;-45
2023/09/10 03:37:11;;;;;;;;;;;20.10;62.30;;;16.15;100.00;95724.38;5027312;28;19916;-44
2023/09/10 03:39:36;;;;;;;;;;;20.10;62.40;;;16.16;100.00;95723.25;5031816;28;19923;-45
2023/09/10 03:42:02;;;;;;;;;;;20.10;62.40;;;16.16;100.00;95724.06;5023219;28;19908;-44
2023/09/10 03:44:28;;;;;;;;;;;20.10;62.50;;;16.14;100.00;95723.56;5024903;28;19913;-43
2023/09/10 03:46:54;;;;;;;;;;;20.10;62.60;;;16.15;100.00;95722.47;5025855;28;19909;-52
2023/09/10 03:49:20;;;;;;;;;;;20.10;62.60;;;16.15;100.00;95716.31;5018276;28;19916;-47
2023/09/10 03:51:49;;;;;;;;;;;20.10;62.70;;;16.13;100.00;95724.66;5032254;28;20391;-48
2023/09/10 03:54:15;;;;;;;;;;;20.10;62.70;;;16.11;100.00;95721.47;5028570;28;20384;-43
2023/09/10 03:56:41;;;;;;;;;;;20.10;62.80;;;16.08;100.00;95722.06;5031945;28;19999;-44
2023/09/10 03:59:08;;;;;;;;;;;20.00;62.70;;;16.06;100.00;95718.88;5029910;28;20369;-43
2023/09/10 04:01:35;;;;;;;;;;;20.00;62.80;;;16.02;100.00;95719.78;5026070;28;19947;-47
2023/09/10 04:04:03;;;;;;;;;;;20.00;62.80;;;15.98;100.00;95716.06;5031369;28;19952;-42
2023/09/10 04:06:31;;;;;;;;;;;20.00;62.80;;;16.00;100.00;95721.94;5019737;28;26769;-42
2023/09/10 04:08:56;;;;;;;;;;;20.00;62.80;;;16.01;100.00;95723.53;5031095;28;19924;-43
2023/09/10 04:11:22;;;;;;;;;;;20.00;62.90;;;16.03;100.00;95724.03;5016732;28;19986;-43
2023/09/10 04:13:48;;;;;;;;;;;20.00;63.00;;;16.02;100.00;95725.13;5031715;28;19909;-48
2023/09/10 04:16:14;;;;;;;;;;;19.90;63.00;;;16.02;100.00;95727.81;5031569;28;20074;-45
2023/09/10 04:18:40;;;;;;;;;;;19.90;63.00;;;16.01;100.00;95715.47;5020392;28;19992;-43
2023/09/10 04:21:06;;;;;;;;;;;19.90;63.10;;;15.98;100.00;95719.53;5008174;28;20597;-42
2023/09/10 04:23:32;;;;;;;;;;;19.90;63.10;;;15.95;100.00;95723.63;5026970;28;19979;-48
2023/09/10 04:25:58;;;;;;;;;;;19.90;63.20;;;15.93;100.00;95731.19;5026160;28;19912;-45
2023/09/10 04:28:24;;;;;;;;;;;19.90;63.20;;;15.95;100.00;95726.31;5031482;28;19909;-43
2023/09/10 04:30:50;;;;;;;;;;;19.90;63.30;;;16.02;100.00;95733.19;5019846;28;19916;-48
2023/09/10 04:33:17;;;;;;;;;;;19.90;63.40;;;16.00;100.00;95736.16;5031336;28;19915;-44
2023/09/10 04:35:53;;;;;;;;;;;19.90;63.40;;;15.98;100.00;95737.53;5026061;28;19916;-48
2023/09/10 04:38:19;;;;;;;;;;;19.90;63.40;;;15.91;100.00;95741.41;5031349;28;19934;-48
2023/09/10 04:40:45;;;;;;;;;;;19.90;63.40;;;15.91;100.00;95743.31;5031356;28;19916;-45
2023/09/10 04:43:11;;;;;;;;;;;19.90;63.40;;;15.93;100.00;95743.81;5021857;28;19916;-43
2023/09/10 04:45:37;;;;;;;;;;;19.80;63.50;;;15.93;100.00;95747.28;5030565;28;20259;-45
2023/09/10 04:48:04;;;;;;;;;;;19.80;63.50;;;15.86;100.00;95735.34;5021497;28;19913;-43
2023/09/10 04:50:30;;;;;;;;;;;19.80;63.50;;;15.87;100.00;95743.09;5024202;28;20438;-45
2023/09/10 04:52:56;;;;;;;;;;;19.80;63.60;;;15.88;100.00;95749.25;5020921;28;20298;-43
2023/09/10 04:55:22;;;;;;;;;;;19.90;63.60;;;15.86;100.00;95751.47;5026772;28;19916;-42
2023/09/10 04:57:48;;;;;;;;;;;19.80;63.60;;;15.85;100.00;95747.16;5030631;28;19915;-42
2023/09/10 05:00:14;;;;;;;;;;;19.80;63.60;;;15.86;100.00;95744.19;5022829;28;19909;-46
2023/09/10 05:02:40;;;;;;;;;;;19.80;63.70;;;15.87;100.00;95745.00;5031526;28;19908;-46
2023/09/10 05:05:06;;;;;;;;;;;19.80;63.70;;;15.90;100.00;95744.41;5027253;28;19919;-48
2023/09/10 05:07:32;;;;;;;;;;;19.80;63.70;;;15.90;100.00;95750.56;5020832;28;19913;-42
2023/09/10 05:09:57;;;;;;;;;;;19.80;63.70;;;15.91;100.00;95751.38;5026618;28;19913;-41
2023/09/10 05:12:23;;;;;;;;;;;19.90;63.80;;;15.91;100.00;95754.06;5018857;28;19944;-42
2023/09/10 05:14:49;;;;;;;;;;;19.90;63.90;;;15.92;100.00;95752.97;5031086;28;20019;-49
2023/09/10 05:17:14;;;;;;;;;;;19.90;63.90;;;15.94;100.00;95759.63;5028666;28;20370;-44
2023/09/10 05:19:41;;;;;;;;;;;19.90;63.90;;;15.95;100.00;95763.94;5012456;28;19909;-43
2023/09/10 05:22:07;;;;;;;;;;;19.90;63.90;;;16.01;100.00;95756.56;5012683;28;19917;-43
2023/09/10 05:24:32;;;;;;;;;;;20.00;63.90;;;15.99;100.00;95758.75;5013702;28;19920;-46
2023/09/10 05:26:58;;;;;;;;;;;20.00;63.90;;;15.99;100.00;95760.66;5015038;28;19912;-45
2023/09/10 05:29:26;;;;;;;;;;;20.00;63.90;;;16.01;100.00;95758.44;5013916;28;20012;-47
2023/09/10 05:31:52;;;;;;;;;;;20.10;63.90;;;16.04;100.00;95764.03;5024674;28;20359;-49
2023/09/10 05:34:18;;;;;;;;;;;20.10;63.90;;;16.07;100.00;95760.75;5034382;28;20334;-51
2023/09/10 05:36:44;;;;;;;;;;;20.10;63.90;;;16.10;100.00;95757.47;5028982;28;19967;-45
2023/09/10 05:39:09;;;;;;;;;;;20.20;64.70;;;16.09;100.00;95761.28;5033918;28;20051;-48
2023/09/10 05:41:35;;;;;;;;;;;20.20;64.00;;;16.16;100.00;95763.56;5029837;28;19913;-47
2023/09/10 05:44:01;;;;;;;;;;;20.30;64.00;;;16.23;100.00;95760.50;5030418;28;20353;-48
2023/09/10 05:46:26;;;;;;;;;;;20.30;64.00;;;16.30;100.00;95763.63;5033298;28;20007;-46
2023/09/10 05:48:52;;;;;;;;;;;20.40;64.00;;;16.41;100.00;95759.63;5021052;28;19956;-47
2023/09/10 05:51:18;;;;;;;;;;;20.50;64.00;;;16.51;100.00;95759.44;5034515;28;20432;-47
2023/09/10 05:53:44;;;;;;;;;;;20.60;64.00;;;16.61;100.00;95763.84;5030740;28;19952;-46
2023/09/10 05:56:10;;;;;;;;;;;20.70;64.10;;;16.75;100.00;95761.97;5034361;28;19915;-45
2023/09/10 05:58:36;;;;;;;;;;;20.90;64.00;;;16.96;100.00;95769.66;5033820;28;19916;-47
2023/09/10 06:01:02;;;;;;;;;;;21.10;64.00;;;17.11;100.00;95769.34;5026255;28;19931;-46
2023/09/10 06:03:28;;;;;;;;;;;21.20;63.90;;;17.20;100.00;95769.41;5031616;28;20278;-43
2023/09/10 06:05:56;;;;;;;;;;;21.40;63.80;;;17.37;100.00;95766.09;5016511;28;19909;-43
2023/09/10 06:08:22;;;;;;;;;;;21.60;63.70;;;17.60;100.00;95778.47;5029922;28;19924;-49
2023/09/10 06:10:48;;;;;;;;;;;21.90;63.60;;;17.86;100.00;95776.00;5020842;28;19917;-49
2023/09/10 06:13:14;;;;;;;;;;;22.20;63.60;;;18.17;100.00;95780.66;5015121;28;20273;-55
2023/09/10 06:15:40;;;;;;;;;;;22.50;63.50;;;18.44;100.00;95775.13;5013590;28;19909;-44
2023/09/10 06:18:06;;;;;;;;;;;22.80;63.30;;;18.74;100.00;95780.84;5020747;28;19909;-44
2023/09/10 06:20:31;;;;;;;;;;;23.20;63.20;;;18.95;100.00;95776.44;5015965;28;19996;-46
2023/09/10 06:22:57;;;;;;;;;;;23.50;62.90;;;19.24;100.00;95780.53;5029856;28;20407;-44
2023/09/10 06:25:24;;;;;;;;;;;23.90;62.60;;;19.57;100.00;95786.28;5023844;28;19912;-46
2023/09/10 06:27:50;;;;;;;;;;;24.30;62.10;;;19.88;100.00;95788.84;5032545;28;20383;-43
2023/09/10 06:30:16;;;;;;;;;;;24.70;61.80;;;20.16;100.00;95793.91;5023169;28;19909;-43
2023/09/10 06:32:41;;;;;;;;;;;25.10;61.40;;;20.48;100.00;95787.16;5029041;28;19915;-44
2023/09/10 06:35:08;;;;;;;;;;;25.50;61.00;;;20.84;100.00;95795.97;5032579;28;19931;-44
2023/09/10 06:37:33;;;;;;;;;;;25.90;60.70;;;21.14;100.00;95792.19;5028766;28;19909;-47
2023/09/10 06:39:59;;;;;;;;;;;26.30;60.30;;;21.48;100.00;95788.50;5032770;28;19961;-48
2023/09/10 06:42:26;;;;;;;;;;;26.70;59.90;;;21.85;100.00;95786.00;5023146;28;19908;-45
2023/09/10 06:44:51;;;;;;;;;;;27.20;59.70;;;22.20;99.55;95784.94;5015450;28;19913;-46
2023/09/10 06:47:17;;;;;;;;;;;27.60;59.40;;;22.46;96.79;95792.81;5030842;28;19955;-46
2023/09/10 06:49:43;;;;;;;;;;;28.00;59.00;;;22.60;93.67;95788.66;5022290;28;20430;-45
2023/09/10 06:52:09;;;;;;;;;;;28.30;58.50;;;22.79;93.63;95782.69;5033320;28;19970;-48
2023/09/10 06:54:35;;;;;;;;;;;28.60;58.40;;;23.03;92.15;95792.81;5010253;28;19920;-47
2023/09/10 06:57:01;;;;;;;;;;;28.90;57.80;;;23.17;88.14;95791.69;5023336;28;20355;-48
2023/09/10 06:59:28;;;;;;;;;;;29.20;57.50;;;23.25;86.96;95788.03;5021757;28;20450;-50
2023/09/10 07:01:54;;;;;;;;;;;29.50;57.10;;;23.40;85.83;95798.22;5021863;28;19919;-51
2023/09/10 07:04:22;;;;;;;;;;;29.60;56.70;;;23.50;83.98;95795.06;5020686;28;20307;-48
2023/09/10 07:06:51;;;;;;;;;;;29.80;56.40;;;23.72;83.95;95801.97;5017335;28;19912;-48
2023/09/10 07:09:23;;;;;;;;;;;30.00;56.10;;;24.07;82.61;95803.31;5026317;28;19929;-49
2023/09/10 07:11:54;;;;;;;;;;;30.20;56.00;;;24.47;79.73;95800.56;5015056;28;19934;-45
2023/09/10 07:14:21;;;;;;;;;;;30.40;55.80;;;24.84;77.99;95812.03;5024857;28;20014;-45
2023/09/10 07:16:48;;;;;;;;;;;30.70;55.60;;;25.21;76.92;95811.00;5022353;28;20091;-48
2023/09/10 07:19:15;;;;;;;;;;;31.00;55.40;;;25.47;74.21;95808.50;5015315;28;19913;-46
2023/09/10 07:21:41;;;;;;;;;;;31.30;55.20;;;25.73;72.68;95807.09;5031215;28;20285;-45
2023/09/10 07:24:08;;;;;;;;;;;31.60;54.80;;;25.78;71.30;95815.03;5022689;28;19921;-45
2023/09/10 07:26:34;;;;;;;;;;;31.90;54.50;;;25.89;70.89;95805.16;5025659;28;19951;-53
2023/09/10 07:29:00;;;;;;;;;;;32.10;54.00;;;26.24;70.77;95812.50;5024129;28;19958;-49
2023/09/10 07:31:25;;;;;;;;;;;32.40;53.70;;;26.51;68.55;95811.50;5014572;28;19913;-50
2023/09/10 07:33:51;;;;;;;;;;;32.70;53.50;;;26.80;66.45;95812.03;5027012;28;19909;-44
2023/09/10 07:36:17;;;;;;;;;;;32.90;53.10;;;27.03;65.82;95813.97;5021053;28;19944;-45
2023/09/10 07:38:43;;;;;;;;;;;33.10;52.80;;;27.27;64.69;95821.81;5031925;28;19931;-45
2023/09/10 07:41:08;;;;;;;;;;;33.40;52.40;;;27.50;64.44;95810.03;5030463;28;19909;-56
2023/09/10 07:43:34;;;;;;;;;;;33.60;52.00;;;27.82;62.67;95816.00;5012031;28;19920;-44
2023/09/10 07:46:00;;;;;;;;;;;33.90;51.70;;;28.06;62.19;95810.06;5024470;28;19917;-49
2023/09/10 07:48:26;;;;;;;;;;;34.10;51.30;;;28.44;61.01;95818.34;5010592;28;19909;-45
2023/09/10 07:50:56;;;;;;;;;;;34.30;51.00;;;28.74;58.17;95824.56;5031281;28;19909;-45
2023/09/10 07:53:23;;;;;;;;;;;34.50;50.70;;;28.88;57.23;95812.94;5021013;28;19962;-45
2023/09/10 07:55:49;;;;;;;;;;;34.70;50.30;;;29.02;56.98;95810.38;5020730;28;19912;-48
2023/09/10 07:58:15;;;;;;;;;;;35.00;50.00;;;29.29;55.93;95813.69;5031596;28;19974;-46
2023/09/10 08:00:41;;;;;;;;;;;35.20;49.60;;;29.42;55.66;95824.38;5023772;28;19909;-47
2023/09/10 08:03:07;;;;;;;;;;;35.40;49.20;;;29.47;54.45;95827.56;5031589;28;20351;-49
2023/09/10 08:05:34;;;;;;;;;;;35.60;48.90;;;29.61;54.04;95815.13;5026956;28;20434;-48
2023/09/10 08:08:03;;;;;;;;;;;35.70;48.50;;;29.72;53.75;95825.00;5018202;28;19991;-47
2023/09/10 08:10:33;;;;;;;;;;;35.90;48.20;;;29.83;53.65;95816.06;5024331;28;19916;-46
2023/09/10 08:13:00;;;;;;;;;;;36.10;47.90;;;30.03;52.95;95817.34;5025037;28;20351;-45
2023/09/10 08:15:26;;;;;;;;;;;36.30;47.60;;;30.28;52.62;95816.69;5022982;28;19924;-50
2023/09/10 08:17:55;;;;;;;;;;;36.50;47.30;;;30.41;52.31;95813.22;5010227;28;19909;-48
2023/09/10 08:20:22;;;;;;;;;;;36.60;47.00;;;30.57;52.26;95812.84;5021534;28;20247;-45
2023/09/10 08:22:48;;;;;;;;;;;36.80;47.40;;;30.80;51.82;95814.50;5031404;28;19931;-44
2023/09/10 08:25:14;;;;;;;;;;;36.90;46.40;;;31.03;50.72;95814.94;5021023;28;20366;-48
2023/09/10 08:27:40;;;;;;;;;;;37.00;46.20;;;31.28;49.97;95817.69;5014610;28;19919;-44
2023/09/10 08:30:09;;;;;;;;;;;37.10;45.80;;;31.51;48.22;95813.78;5009820;28;19920;-49
2023/09/10 08:32:37;;;;;;;;;;;37.20;45.70;;;31.33;48.53;95813.75;5025518;28;19909;-45
2023/09/10 08:35:04;;;;;;;;;;;37.40;45.50;;;31.52;48.14;95815.34;5031075;28;19915;-48
2023/09/10 08:37:30;;;;;;;;;;;37.50;45.20;;;31.22;48.88;95813.78;5019492;28;19960;-49
2023/09/10 08:39:57;;;;;;;;;;;37.60;44.90;;;31.29;49.81;95813.75;5019209;28;19936;-49
2023/09/10 08:42:56;;;;;;;;;;;37.80;44.70;;;30.98;49.90;95814.53;5015164;28;19909;-46
2023/09/10 08:45:23;;;;;;;;;;;37.90;44.50;;;31.07;50.04;95817.69;5010085;28;20004;-47
2023/09/10 08:47:57;;;;;;;;;;;37.90;44.20;;;30.95;49.59;95820.81;5012241;28;20007;-50
2023/09/10 08:50:23;;;;;;;;;;;38.00;43.90;;;31.00;49.95;95818.47;5010506;28;19909;-46
2023/09/10 08:52:50;;;;;;;;;;;38.10;43.80;;;31.26;49.54;95813.75;5006148;28;19964;-46
2023/09/10 08:55:16;;;;;;;;;;;38.10;43.70;;;31.58;48.98;95814.53;5007773;28;19963;-46
2023/09/10 08:57:44;;;;;;;;;;;38.20;43.60;;;31.62;48.04;95811.00;5010655;28;19913;-48
2023/09/10 09:00:12;;;;;;;;;;;38.30;43.40;;;31.58;48.68;95811.78;5006893;28;19909;-44
2023/09/10 09:02:40;;;;;;;;;;;38.50;43.30;;;31.75;48.12;95812.19;5005660;28;20342;-45
2023/09/10 09:05:07;;;;;;;;;;;38.50;43.00;;;31.97;48.12;95813.72;5009327;28;20128;-51
2023/09/10 09:07:57;;;;;;;;;;;38.60;42.80;;;32.30;47.54;95811.63;5008707;28;19917;-47
2023/09/10 09:10:26;;;;;;;;;;;38.70;42.60;;;32.09;47.75;95812.50;5008634;28;19951;-47
2023/09/10 09:12:58;;;;;;;;;;;38.80;42.40;;;32.38;47.43;95815.16;5008988;28;19913;-44
2023/09/10 09:15:25;;;;;;;;;;;39.00;42.40;;;32.61;45.54;95811.91;4997846;28;19908;-46
2023/09/10 09:17:54;;;;;;;;;;;39.10;42.10;;;32.92;45.50;95805.41;5005333;28;19936;-50
2023/09/10 09:20:21;;;;;;;;;;;39.20;42.00;;;33.19;42.63;95807.59;5038677;23;20337;-53
2023/09/10 09:22:52;;;;;;;;;;;39.40;41.50;;;33.25;43.01;95811.50;5030290;28;19917;-55
2023/09/10 09:25:18;;;;;;;;;;;39.60;41.40;;;33.55;42.65;95810.06;5039245;28;19923;-56
2023/09/10 09:27:45;;;;;;;;;;;39.80;41.10;;;33.75;41.38;95808.31;5037009;28;20012;-57
2023/09/10 09:30:11;;;;;;;;;;;39.90;40.80;;;33.72;42.14;95809.13;5011655;28;19909;-55
2023/09/10 09:32:39;;;;;;;;;;;40.10;40.60;;;33.84;42.24;95811.34;5010114;28;19909;-55
2023/09/10 09:35:08;;;;;;;;;;;40.20;40.30;;;34.12;42.79;95817.78;5010518;28;19975;-55
2023/09/10 09:37:35;;;;;;;;;;;40.40;40.20;;;34.15;41.70;95802.38;5010157;28;19955;-58
2023/09/10 09:40:21;;;;;;;;;;;40.60;40.00;;;34.47;41.63;95810.25;5010643;28;19913;-57
2023/09/10 09:42:47;;;;;;;;;;;40.80;39.80;;;34.44;40.92;95802.78;5002260;28;20334;-57
2023/09/10 09:45:13;;;;;;;;;;;41.00;40.00;;;34.43;40.40;95799.25;5010551;28;20287;-55
2023/09/10 09:47:45;;;;;;;;;;;41.10;39.00;;;34.50;39.88;95799.13;5010168;28;19913;-57
2023/09/10 09:50:14;;;;;;;;;;;41.20;38.60;;;34.04;40.52;95799.75;5006845;28;19916;-57
2023/09/10 09:52:40;;;;;;;;;;;41.20;38.40;;;33.96;42.06;95795.44;5008155;28;19991;-56
2023/09/10 09:55:08;;;;;;;;;;;41.20;38.00;;;34.21;40.44;95793.22;5008426;28;20023;-55
2023/09/10 09:57:36;;;;;;;;;;;41.20;37.90;;;34.27;40.19;95788.00;5006855;28;19909;-55
2023/09/10 10:00:09;;;;;;;;;;;41.30;37.90;;;34.74;39.97;95782.66;5009251;28;19917;-57
2023/09/10 10:02:35;;;;;;;;;;;41.40;37.80;;;34.93;39.84;95784.72;5010225;28;20393;-55
2023/09/10 10:05:02;;;;;;;;;;;41.50;37.70;;;34.91;38.74;95784.38;5005829;28;19993;-54
2023/09/10 10:07:28;;;;;;;;;;;41.70;37.30;;;35.09;38.52;95786.88;4992173;28;19916;-54
2023/09/10 10:09:54;;;;;;;;;;;41.70;37.00;;;35.40;38.92;95776.47;5013415;28;19909;-56
2023/09/10 10:12:20;;;;;;;;;;;41.80;36.90;;;35.59;37.16;95786.06;5013286;28;19909;-54
2023/09/10 10:14:48;;;;;;;;;;;42.00;36.80;;;35.65;36.92;95773.31;5028195;28;19920;-56
2023/09/10 10:17:16;;;;;;;;;;;42.10;36.60;;;35.63;36.85;95770.19;5015198;28;19915;-54
2023/09/10 10:19:43;;;;;;;;;;;42.40;36.50;;;35.83;36.32;95763.88;5029667;28;19917;-55
2023/09/10 10:22:11;;;;;;;;;;;42.60;36.30;;;35.92;37.11;95764.09;5033322;28;19931;-57
2023/09/10 10:24:39;;;;;;;;;;;42.80;36.00;;;35.97;36.43;95760.81;5020461;28;19913;-57
2023/09/10 10:27:06;;;;;;;;;;;43.00;35.80;;;36.31;35.54;95759.75;5032831;28;20363;-56
2023/09/10 10:29:33;;;;;;;;;;;43.20;35.60;;;36.52;35.83;95750.22;5011774;28;19996;-54
2023/09/10 10:32:22;;;;;;;;;;;43.30;35.40;;;36.40;35.61;95754.41;5024879;28;20015;-51
2023/09/10 10:35:05;;;;;;;;;;;43.50;35.20;;;36.64;35.49;95741.25;5017613;28;20259;-53
2023/09/10 10:37:51;;;;;;;;;;;43.70;35.00;;;36.98;35.00;95746.41;5024413;28;19912;-53
2023/09/10 10:40:27;;;;;;;;;;;43.90;34.70;;;37.06;35.85;95744.25;5009165;28;19908;-55
2023/09/10 10:43:29;;;;;;;;;;;44.10;34.50;;;37.12;34.79;95742.50;5012258;28;19917;-55
2023/09/10 10:45:58;;;;;;;;;;;44.10;34.30;;;37.21;35.38;95741.91;5016285;28;20070;-58
2023/09/10 10:48:29;;;;;;;;;;;44.30;34.00;;;37.30;34.06;95727.41;5012948;28;19909;-53
2023/09/10 10:50:58;;;;;;;;;;;44.30;33.70;;;37.61;34.82;95741.66;5033133;28;19908;-57
2023/09/10 10:53:25;;;;;;;;;;;44.40;33.60;;;37.88;34.48;95739.31;5029701;28;19909;-53
2023/09/10 10:56:03;;;;;;;;;;;44.60;33.60;;;37.92;32.30;95734.50;5028644;28;19948;-54
2023/09/10 10:58:39;;;;;;;;;;;44.80;33.40;;;37.90;32.35;95731.34;5025908;28;19931;-53
2023/09/10 11:01:05;;;;;;;;;;;45.00;33.30;;;37.43;33.28;95733.78;5017497;28;19999;-55
2023/09/10 11:03:34;;;;;;;;;;;45.10;33.10;;;37.39;34.15;95727.53;5032079;28;19908;-53
2023/09/10 11:06:04;;;;;;;;;;;45.10;32.90;;;37.50;32.75;95728.06;5030454;28;19913;-53
2023/09/10 11:08:48;;;;;;;;;;;45.20;32.80;;;37.98;31.80;95729.16;5032651;28;20003;-53
2023/09/10 11:11:39;;;;;;;;;;;45.30;32.50;;;38.45;30.73;95733.38;5014628;28;19918;-56
2023/09/10 11:14:08;;;;;;;;;;;45.50;32.20;;;38.64;31.77;95724.84;5014921;28;19959;-56
2023/09/10 11:16:35;;;;;;;;;;;45.60;32.00;;;38.84;30.30;95729.41;5022700;28;19909;-55